WetterOnline ( https://www.wetteronline.de )

Wetter aktuell Neubrandenburg

Aktuelles Wetter: Waren (71m)

6-stündlich | Neueste Meldungen
Ortszeit Temperatur Wetter
Di, 26.05. 14:00 18.7° C leicht bewölkt
Di, 26.05. 8:00 12.8° C leicht bewölkt
Di, 26.05. 2:00 8.7° C wolkenlos
Mo, 25.05. 20:00 13.9° C bedeckt
Mo, 25.05. 14:00 12.2° C bedeckt
Mo, 25.05. 8:00 9.4° C Sprühregen
Mo, 25.05. 2:00 11.5° C bedeckt
So, 24.05. 20:00 13.9° C bewölkt
Ortszeit Temperatur Wetter
Di, 26.05. 14:00 18.7° C leicht bewölkt
Di, 26.05. 13:50 18.7° C leicht bewölkt
Di, 26.05. 13:40 19.2° C leicht bewölkt
Di, 26.05. 13:30 18.0° C leicht bewölkt
Di, 26.05. 13:20 18.0° C leicht bewölkt
Di, 26.05. 13:10 18.9° C wolkenlos
Di, 26.05. 13:00 18.6° C leicht bewölkt
Di, 26.05. 12:30 17.2° C leicht bewölkt
Di, 26.05. 12:00 16.3° C bedeckt
Di, 26.05. 11:30 16.3° C wolkig
Di, 26.05. 11:00 15.8° C fast wolkenlos
Ortszeit Relative Feuchte Sichtweite
Di, 26.05. 14:00 47% 65 km
Di, 26.05. 8:00 82% 21 km
Di, 26.05. 2:00 95% 14 km
Mo, 25.05. 20:00 69% 40 km
Mo, 25.05. 14:00 79% 35 km
Mo, 25.05. 8:00 93% 2.5 km
Mo, 25.05. 2:00 68% 45 km
So, 24.05. 20:00 73% 45 km
Ortszeit Relative Feuchte Sichtweite
Di, 26.05. 14:00 47% 65 km
Di, 26.05. 13:50 47% -
Di, 26.05. 13:40 44% -
Di, 26.05. 13:30 49% >70 km
Di, 26.05. 13:20 49% -
Di, 26.05. 13:10 47% -
Di, 26.05. 13:00 51% 65 km
Di, 26.05. 12:30 57% 45 km
Di, 26.05. 12:00 62% 50 km
Di, 26.05. 11:30 65% 65 km
Di, 26.05. 11:00 69% 35 km
Ortszeit Niederschlagsmenge Niederschlagsart
Di, 26.05. 14:00 0.0 l/m2 in 6 Std. -
Di, 26.05. 8:00 0.0 l/m2 in 12 Std. -
Di, 26.05. 2:00 0.0 l/m2 in 6 Std. -
Mo, 25.05. 20:00 0.6 l/m2 in 12 Std. Regen
Mo, 25.05. 14:00 0.7 l/m2 in 6 Std. Regen
Mo, 25.05. 8:00 1 l/m2 in 12 Std. Regen
Mo, 25.05. 2:00 0.1 l/m2 in 6 Std. Regen
So, 24.05. 20:00 3 l/m2 in 12 Std. Regen
Ortszeit Niederschlagsmenge Niederschlagsart
Di, 26.05. 14:00 0.0 l/m2 in 1 Std. -
Di, 26.05. 13:50 keine Meldung -
Di, 26.05. 13:40 keine Meldung -
Di, 26.05. 13:30 0.0 l/m2 in 1 Std. -
Di, 26.05. 13:20 keine Meldung -
Di, 26.05. 13:10 keine Meldung -
Di, 26.05. 13:00 0.0 l/m2 in 1 Std. -
Di, 26.05. 12:30 0.0 l/m2 in 1 Std. -
Di, 26.05. 12:00 0.0 l/m2 in 1 Std. -
Di, 26.05. 11:30 0.0 l/m2 in 1 Std. -
Di, 26.05. 11:00 0.0 l/m2 in 1 Std. -
Ortszeit Stärke Spitze Richtung
km/h Bft. km/h Grad Sektor
Di, 26.05. 14:00 7 2 18 60° NO
Di, 26.05. 8:00 7 2 14 330° NW
Di, 26.05. 2:00 4 1 18 330° NW
Mo, 25.05. 20:00 9 2 39 310° NW
Mo, 25.05. 14:00 15 3 33 300° NW
Mo, 25.05. 8:00 14 3 36 290° W
Mo, 25.05. 2:00 17 3 39 280° W
So, 24.05. 20:00 9 2 44 270° W
Ortszeit Stärke Spitze Richtung
km/h Bft. km/h Grad Sektor
Di, 26.05. 14:00 7 2 18 60° NO
Di, 26.05. 13:50 7 2 - 60° NO
Di, 26.05. 13:40 7 2 - 40° NO
Di, 26.05. 13:30 11 2 18 70° O
Di, 26.05. 13:20 11 2 - 70° O
Di, 26.05. 13:10 9 2 - 90° O
Di, 26.05. 13:00 7 2 18 40° NO
Di, 26.05. 12:30 7 2 14 60° NO
Di, 26.05. 12:00 7 2 14 320° NW
Di, 26.05. 11:30 7 2 14 10° N
Di, 26.05. 11:00 7 2 18 40° NO
Ortszeit Untergrenze Bedeckung Gattung
total tief tief mittel hoch
Di, 26.05. 14:00 1350 m 3/8 3/8 - - -
Di, 26.05. 8:00 1470 m 2/8 2/8 - - -
Di, 26.05. 2:00 - 0/8 0/8 - - -
Mo, 25.05. 20:00 1500 m 8/8 8/8 - - -
Mo, 25.05. 14:00 420 m 8/8 8/8 - - -
Mo, 25.05. 8:00 240 m 7/8 7/8 - - -
Mo, 25.05. 2:00 960 m 8/8 8/8 - - -
So, 24.05. 20:00 1200 m 8/8 7/8 - - -
Ortszeit Bedeckungsgrad in Achtel und Wolkenuntergrenze
Di, 26.05. 14:00 3(1350m)
Di, 26.05. 13:50 3(1350m)
Di, 26.05. 13:40 2(1350m)
Di, 26.05. 13:30 2(1260m)
Di, 26.05. 13:20 2(1260m)
Di, 26.05. 13:10 keine Wolken
Di, 26.05. 13:00 2(1290m) 4(1800m)
Di, 26.05. 12:30 1(780m) 3(1500m) 4(1800m)
Di, 26.05. 12:00 3(780m) 7(1200m) 8(1800m)
Di, 26.05. 11:30 1(750m) 5(1170m) 6(1380m)
Di, 26.05. 11:00 1(630m) 3(1170m)
Ortszeit Luftdruck NN (hPa) Tendenz (hPa in 3 Std.)
Di, 26.05. 14:00 1035 - 0,3
Di, 26.05. 8:00 1035 + 1,1
Di, 26.05. 2:00 1033 + 0,7
Mo, 25.05. 20:00 1030 + 1,2
Mo, 25.05. 14:00 1028 + 1,7
Mo, 25.05. 8:00 1025 + 1,2
Mo, 25.05. 2:00 1023 0,0
So, 24.05. 20:00 1022 0,0
Ortszeit Luftdruck NN (hPa) Tendenz (hPa in 3 Std.)
Di, 26.05. 14:00 1035 - 0,3
Di, 26.05. 13:50 1035 keine Meldung
Di, 26.05. 13:40 1035 keine Meldung
Di, 26.05. 13:30 1035 - 0,3
Di, 26.05. 13:20 1035 keine Meldung
Di, 26.05. 13:10 1035 keine Meldung
Di, 26.05. 13:00 1035 0,0
Di, 26.05. 12:30 1035 + 0,1
Di, 26.05. 12:00 1035 + 0,4
Di, 26.05. 11:30 1035 + 0,6
Di, 26.05. 11:00 1035 + 0,6
Ortszeit Schneehöhe (cm)
Di, 26.05. 14:00 -
Di, 26.05. 8:00 -
Di, 26.05. 2:00 -
Mo, 25.05. 20:00 -
Mo, 25.05. 14:00 -
Mo, 25.05. 8:00 -
Mo, 25.05. 2:00 -
So, 24.05. 20:00 -
Ortszeit Schneehöhe (cm)
Di, 26.05. 14:00 -
Di, 26.05. 13:50 -
Di, 26.05. 13:40 -
Di, 26.05. 13:30 -
Di, 26.05. 13:20 -
Di, 26.05. 13:10 -
Di, 26.05. 13:00 -
Di, 26.05. 12:30 -
Di, 26.05. 12:00 -
Di, 26.05. 11:30 -
Di, 26.05. 11:00 -
Link zu dieser Seite / Seite empfehlen

Das Wetter in ...